Time;durP1;ratioP1;P1;durP2;ratioP2;P2;SDS_P1;SDS_P2;PMS_P1;PMS_P2;Temp;Humidity;BMP_temperature;BMP_pressure;BME280_temperature;BME280_humidity;BME280_pressure;Samples;Min_cycle;Max_cycle;Signal;HPM_P1;HPM_P2
2022/07/13 00:00:29;;;;;;;6.50;2.73;;;27.10;99.90;;;;;;5095823;28;20568;-80
2022/07/13 00:02:55;;;;;;;3.87;2.80;;;26.80;1.00;;;;;;5095122;28;20529;-80
2022/07/13 00:05:20;;;;;;;8.07;3.63;;;26.70;99.90;;;;;;5094489;28;20167;-78
2022/07/13 00:07:46;;;;;;;5.43;3.33;;;26.70;1.00;;;;;;5095162;28;20163;-79
2022/07/13 00:10:12;;;;;;;5.70;3.23;;;26.70;99.90;;;;;;5096141;28;20252;-79
2022/07/13 00:12:38;;;;;;;5.13;2.88;;;26.70;1.00;;;;;;5094895;28;20174;-80
2022/07/13 00:15:04;;;;;;;5.73;3.40;;;26.70;99.90;;;;;;5094702;28;20198;-81
2022/07/13 00:17:30;;;;;;;7.53;3.00;;;26.70;99.90;;;;;;5094888;28;20179;-79
2022/07/13 00:19:56;;;;;;;4.40;3.10;;;26.60;1.00;;;;;;5094075;28;20188;-79
2022/07/13 00:22:21;;;;;;;6.43;2.80;;;26.50;1.00;;;;;;5094573;28;20168;-82
2022/07/13 00:24:47;;;;;;;3.73;2.73;;;26.50;29.80;;;;;;5094929;28;20248;-79
2022/07/13 00:27:13;;;;;;;5.33;2.80;;;26.40;99.90;;;;;;5094226;28;20564;-77
2022/07/13 00:29:38;;;;;;;4.50;2.80;;;26.30;99.90;;;;;;5095366;28;20635;-79
2022/07/13 00:32:05;;;;;;;4.33;2.70;;;26.20;99.90;;;;;;5093527;28;20171;-78
2022/07/13 00:34:32;;;;;;;4.20;2.53;;;26.20;99.90;;;;;;5095033;28;20174;-77
2022/07/13 00:36:58;;;;;;;3.57;2.43;;;26.10;99.90;;;;;;5095239;28;20628;-79
2022/07/13 00:39:24;;;;;;;3.83;2.57;;;26.00;99.90;;;;;;5095781;28;20241;-78
2022/07/13 00:41:49;;;;;;;5.00;2.50;;;25.90;99.90;;;;;;5098566;28;20189;-81
2022/07/13 00:44:16;;;;;;;4.47;2.60;;;25.80;1.00;;;;;;5099131;28;20160;-77
2022/07/13 00:46:55;;;;;;;3.40;2.30;;;25.80;29.80;;;;;;5097859;28;20203;-78
2022/07/13 00:49:22;;;;;;;4.03;2.60;;;25.80;1.00;;;;;;5101606;28;20151;-77
2022/07/13 00:51:49;;;;;;;4.20;2.70;;;25.70;99.90;;;;;;5118022;28;20185;-76
2022/07/13 00:54:18;;;;;;;7.37;3.07;;;25.70;1.00;;;;;;5110269;28;20177;-80
2022/07/13 00:56:46;;;;;;;5.50;2.70;;;25.70;1.00;;;;;;5103284;28;20168;-79
2022/07/13 00:59:17;;;;;;;5.23;2.90;;;25.70;1.00;;;;;;5104930;28;20163;-80
2022/07/13 01:01:43;;;;;;;4.87;2.83;;;25.70;99.90;;;;;;5106204;28;20164;-81
2022/07/13 01:04:08;;;;;;;4.43;2.57;;;25.70;55.00;;;;;;5107402;28;20182;-79
2022/07/13 01:06:35;;;;;;;3.50;2.43;;;25.80;1.00;;;;;;5106522;28;20646;-81
2022/07/13 01:09:01;;;;;;;4.70;2.90;;;25.90;1.00;;;;;;5109550;28;20172;-81
2022/07/13 01:11:27;;;;;;;3.93;2.10;;;25.70;1.00;;;;;;5116161;28;20167;-77
2022/07/13 01:13:52;;;;;;;4.63;2.60;;;25.60;1.00;;;;;;5119065;28;20185;-77
2022/07/13 01:16:18;;;;;;;3.63;2.37;;;25.50;99.90;;;;;;5117006;28;20169;-78
2022/07/13 01:18:46;;;;;;;4.87;2.40;;;25.40;99.90;;;;;;5115870;28;20198;-79
2022/07/13 01:21:13;;;;;;;4.17;2.33;;;25.40;1.00;;;;;;5112469;28;20255;-79
2022/07/13 01:23:40;;;;;;;7.37;2.60;;;25.40;1.00;;;;;;5105447;28;20163;-80
2022/07/13 01:26:10;;;;;;;4.47;2.83;;;25.30;1.00;;;;;;5095546;28;20203;-82
2022/07/13 01:28:36;;;;;;;4.97;2.90;;;25.40;1.00;;;;;;5095263;28;20243;-80
2022/07/13 01:31:03;;;;;;;5.30;2.67;;;25.30;1.00;;;;;;5094379;28;20681;-80
2022/07/13 01:33:32;;;;;;;4.77;2.53;;;25.30;55.20;;;;;;5093705;28;20294;-81
2022/07/13 01:35:58;;;;;;;3.90;2.47;;;25.40;1.00;;;;;;5093943;28;20250;-78
2022/07/13 01:38:24;;;;;;;3.23;2.23;;;25.40;10.00;;;;;;5094119;28;20213;-79
2022/07/13 01:40:50;;;;;;;3.40;2.60;;;25.40;41.90;;;;;;5093451;28;20211;-77
2022/07/13 01:43:17;;;;;;;3.47;2.27;;;25.30;81.20;;;;;;5093517;28;20205;-80
2022/07/13 01:45:44;;;;;;;4.37;3.10;;;25.30;99.90;;;;;;5093432;28;20168;-80
2022/07/13 01:48:10;;;;;;;3.80;2.73;;;25.30;99.90;;;;;;5093253;28;20159;-81
2022/07/13 01:50:36;;;;;;;4.60;2.60;;;25.30;99.90;;;;;;5093123;28;20167;-81
2022/07/13 01:53:02;;;;;;;3.40;2.50;;;25.20;99.90;;;;;;5093351;28;20221;-81
2022/07/13 01:55:28;;;;;;;4.03;2.70;;;25.20;65.70;;;;;;5093648;28;20508;-82
2022/07/13 01:57:59;;;;;;;4.87;2.90;;;25.20;26.10;;;;;;5097881;28;20631;-79
2022/07/13 02:00:25;;;;;;;4.33;2.60;;;25.30;7.40;;;;;;5096652;28;20213;-82
2022/07/13 02:02:51;;;;;;;3.87;2.60;;;25.20;85.10;;;;;;5097297;28;20166;-80
2022/07/13 02:05:17;;;;;;;6.43;2.83;;;25.30;44.40;;;;;;5097310;28;20174;-80
2022/07/13 02:07:43;;;;;;;4.57;2.70;;;25.20;99.90;;;;;;5097506;28;20168;-81
2022/07/13 02:10:11;;;;;;;7.60;3.23;;;25.10;99.90;;;;;;5098315;28;20693;-82
2022/07/13 02:12:37;;;;;;;5.27;3.40;;;25.10;99.90;;;;;;5097174;28;20276;-81
2022/07/13 02:15:03;;;;;;;8.83;3.30;;;25.00;99.90;;;;;;5097579;28;20167;-80
2022/07/13 02:17:29;;;;;;;9.67;2.73;;;25.00;99.90;;;;;;5097042;28;20180;-81
2022/07/13 02:19:56;;;;;;;6.40;2.93;;;25.00;99.90;;;;;;5097150;28;20290;-80
2022/07/13 02:22:21;;;;;;;8.40;2.80;;;25.00;99.90;;;;;;5097129;28;20164;-80
2022/07/13 02:24:47;;;;;;;8.63;3.03;;;25.10;99.90;;;;;;5105964;28;20198;-77
2022/07/13 02:27:14;;;;;;;7.90;2.93;;;25.10;99.90;;;;;;5119788;28;20172;-79
2022/07/13 02:29:42;;;;;;;7.07;3.13;;;25.00;99.90;;;;;;5110996;28;20198;-78
2022/07/13 02:32:11;;;;;;;5.90;2.70;;;25.10;99.90;;;;;;5097170;28;20680;-79
2022/07/13 02:34:39;;;;;;;7.50;3.30;;;25.00;99.90;;;;;;5095454;28;20168;-81
2022/07/13 02:37:05;;;;;;;6.53;3.10;;;24.90;99.90;;;;;;5095606;28;20168;-79
2022/07/13 02:39:31;;;;;;;5.70;2.87;;;24.80;99.90;;;;;;5096331;28;20196;-80
2022/07/13 02:41:57;;;;;;;4.03;2.77;;;24.80;99.90;;;;;;5096697;28;20583;-82
2022/07/13 02:44:22;;;;;;;3.43;2.70;;;24.70;99.90;;;;;;5096776;28;20175;-80
2022/07/13 02:46:48;;;;;;;7.03;3.30;;;24.70;99.90;;;;;;5096019;28;20254;-81
2022/07/13 02:49:14;;;;;;;4.30;2.63;;;24.70;99.90;;;;;;5097072;28;20171;-79
2022/07/13 02:51:40;;;;;;;4.23;3.00;;;24.60;99.90;;;;;;5098060;28;20172;-79
2022/07/13 02:54:05;;;;;;;4.13;2.50;;;24.50;99.90;;;;;;5119390;28;20187;-78
2022/07/13 02:56:31;;;;;;;3.50;2.30;;;24.50;99.90;;;;;;5119798;28;20210;-76
2022/07/13 02:58:56;;;;;;;5.07;2.83;;;24.50;99.90;;;;;;5114556;28;20213;-81
2022/07/13 03:01:22;;;;;;;4.37;2.23;;;24.50;99.90;;;;;;5110333;28;20686;-82
2022/07/13 03:03:48;;;;;;;4.67;2.27;;;24.50;99.90;;;;;;5095925;28;20238;-79
2022/07/13 03:06:15;;;;;;;4.87;2.13;;;24.50;99.90;;;;;;5096096;28;20243;-79
2022/07/13 03:08:40;;;;;;;3.37;2.33;;;24.50;99.90;;;;;;5095932;28;20204;-80
2022/07/13 03:11:06;;;;;;;3.70;2.10;;;24.50;99.90;;;;;;5096249;28;20202;-77
2022/07/13 03:13:32;;;;;;;4.07;2.27;;;24.50;99.90;;;;;;5097087;28;20171;-80
2022/07/13 03:15:57;;;;;;;4.50;2.10;;;24.50;99.90;;;;;;5097515;28;20668;-80
2022/07/13 03:18:23;;;;;;;4.37;2.30;;;24.50;99.90;;;;;;5096683;28;20191;-81
2022/07/13 03:20:50;;;;;;;4.43;2.20;;;24.50;99.90;;;;;;5099168;28;20572;-80
2022/07/13 03:23:15;;;;;;;2.87;2.17;;;24.50;99.90;;;;;;5097278;28;20172;-79
2022/07/13 03:25:41;;;;;;;4.03;2.20;;;24.50;99.90;;;;;;5096104;28;20182;-80
2022/07/13 03:28:06;;;;;;;4.03;2.77;;;24.50;99.90;;;;;;5095577;28;20202;-79
2022/07/13 03:30:32;;;;;;;4.23;2.17;;;24.60;99.90;;;;;;5095540;28;20532;-79
2022/07/13 03:32:58;;;;;;;6.47;2.50;;;24.60;99.90;;;;;;5095427;28;20171;-80
2022/07/13 03:35:24;;;;;;;3.83;2.40;;;24.60;99.90;;;;;;5095654;28;20176;-81
2022/07/13 03:37:49;;;;;;;4.33;2.20;;;24.60;7.80;;;;;;5095526;28;20168;-80
2022/07/13 03:40:15;;;;;;;4.03;2.63;;;24.70;1.00;;;;;;5097039;28;20574;-82
2022/07/13 03:42:41;;;;;;;5.83;2.27;;;24.70;1.00;;;;;;5101493;28;20163;-76
2022/07/13 03:45:07;;;;;;;3.87;2.50;;;24.80;1.00;;;;;;5120284;28;20179;-81
2022/07/13 03:47:34;;;;;;;4.67;2.30;;;24.80;1.00;;;;;;5115859;28;20182;-80
2022/07/13 03:49:59;;;;;;;4.67;2.47;;;24.80;99.90;;;;;;5111980;28;20171;-80
2022/07/13 03:52:28;;;;;;;4.67;2.30;;;24.80;99.90;;;;;;5099775;28;20616;-80
2022/07/13 03:54:54;;;;;;;4.30;2.30;;;24.80;99.90;;;;;;5099357;28;20156;-78
2022/07/13 03:57:21;;;;;;;4.27;2.10;;;24.80;99.90;;;;;;5102884;28;20186;-81
2022/07/13 03:59:47;;;;;;;4.83;2.47;;;24.90;1.00;;;;;;5106370;28;20191;-81
2022/07/13 04:02:13;;;;;;;3.87;2.20;;;24.90;1.00;;;;;;5105371;28;20199;-80
2022/07/13 04:04:39;;;;;;;3.90;2.30;;;24.80;1.00;;;;;;5114878;28;20190;-78
2022/07/13 04:07:04;;;;;;;4.27;2.60;;;24.70;1.00;;;;;;5119501;28;20236;-76
2022/07/13 04:09:33;;;;;;;4.43;2.30;;;24.70;1.00;;;;;;5114662;28;20179;-79
2022/07/13 04:11:59;;;;;;;3.73;2.10;;;24.70;1.00;;;;;;5104229;28;20167;-79
2022/07/13 04:14:24;;;;;;;4.87;2.53;;;24.80;12.80;;;;;;5093443;28;20186;-80
2022/07/13 04:16:50;;;;;;;8.63;2.40;;;24.90;99.90;;;;;;5094636;28;20173;-80
2022/07/13 04:19:15;;;;;;;6.30;2.60;;;25.00;1.00;;;;;;5094223;28;20222;-79
2022/07/13 04:21:41;;;;;;;5.33;2.33;;;24.80;99.90;;;;;;5096522;28;20215;-79
2022/07/13 04:24:07;;;;;;;10.73;2.80;;;24.90;1.00;;;;;;5095798;28;20198;-80
2022/07/13 04:26:33;;;;;;;9.27;2.70;;;24.80;99.90;;;;;;5095030;28;20167;-80
2022/07/13 04:28:59;;;;;;;8.53;2.63;;;24.80;1.00;;;;;;5095297;28;20160;-80
2022/07/13 04:31:25;;;;;;;4.07;2.63;;;24.80;12.90;;;;;;5094584;28;20624;-79
2022/07/13 04:33:50;;;;;;;7.67;2.57;;;24.90;99.90;;;;;;5094519;28;20167;-81
2022/07/13 04:36:16;;;;;;;4.20;2.40;;;25.00;1.00;;;;;;5094909;28;20164;-81
2022/07/13 04:38:42;;;;;;;3.93;2.37;;;25.00;1.00;;;;;;5093997;28;20232;-81
2022/07/13 04:41:07;;;;;;;6.90;2.50;;;25.00;1.00;;;;;;5094033;28;20304;-80
2022/07/13 04:43:33;;;;;;;4.20;2.77;;;24.90;99.90;;;;;;5093055;28;20164;-81
2022/07/13 04:46:00;;;;;;;3.17;2.37;;;24.80;1.00;;;;;;5094195;28;20168;-80
2022/07/13 04:48:26;;;;;;;3.30;2.33;;;24.90;1.00;;;;;;5094119;28;20246;-79
2022/07/13 04:50:51;;;;;;;4.43;2.33;;;24.80;99.90;;;;;;5094437;28;20315;-79
2022/07/13 04:53:17;;;;;;;6.47;2.43;;;24.70;99.90;;;;;;5095839;28;20176;-79
2022/07/13 04:55:43;;;;;;;5.83;2.40;;;24.60;53.20;;;;;;5095093;28;20669;-80
2022/07/13 04:58:08;;;;;;;5.87;2.50;;;24.60;99.90;;;;;;5094538;28;20529;-81
2022/07/13 05:00:37;;;;;;;4.87;2.67;;;24.50;1.00;;;;;;5093759;28;20203;-81
2022/07/13 05:03:03;;;;;;;5.67;2.40;;;24.60;1.00;;;;;;5094174;28;20216;-80
2022/07/13 05:05:31;;;;;;;4.80;2.43;;;24.60;1.00;;;;;;5093861;28;20167;-82
2022/07/13 05:07:59;;;;;;;6.23;2.43;;;24.70;99.90;;;;;;5092679;28;20170;-79
2022/07/13 05:10:25;;;;;;;7.10;2.30;;;24.80;87.20;;;;;;5093669;28;20371;-79
2022/07/13 05:12:50;;;;;;;5.83;2.30;;;24.70;99.90;;;;;;5093897;28;20666;-80
2022/07/13 05:15:18;;;;;;;5.37;2.30;;;24.70;99.90;;;;;;5093751;28;20159;-80
2022/07/13 05:17:43;;;;;;;4.90;2.60;;;24.70;99.90;;;;;;5093734;28;20164;-79
2022/07/13 05:20:10;;;;;;;5.70;2.30;;;24.80;1.00;;;;;;5094231;28;20203;-78
2022/07/13 05:22:35;;;;;;;5.53;2.47;;;24.90;1.00;;;;;;5093247;28;20647;-83
2022/07/13 05:25:01;;;;;;;6.10;2.87;;;25.00;99.90;;;;;;5095216;28;20164;-80
2022/07/13 05:27:27;;;;;;;8.63;2.60;;;25.00;99.90;;;;;;5100041;28;20171;-80
2022/07/13 05:29:52;;;;;;;7.90;2.40;;;25.00;1.00;;;;;;5098243;28;20258;-79
2022/07/13 05:32:18;;;;;;;6.60;2.30;;;25.00;69.30;;;;;;5108336;28;20580;-79
2022/07/13 05:34:45;;;;;;;4.30;2.30;;;24.90;1.00;;;;;;5110227;28;20561;-80
2022/07/13 05:37:11;;;;;;;6.53;2.47;;;24.80;1.00;;;;;;5114708;28;20166;-80
2022/07/13 05:39:37;;;;;;;3.63;2.40;;;24.80;1.00;;;;;;5097821;28;20266;-81
2022/07/13 05:42:02;;;;;;;6.60;2.67;;;24.70;1.00;;;;;;5098067;28;20585;-80
2022/07/13 05:44:28;;;;;;;6.90;2.23;;;24.50;1.00;;;;;;5109551;28;20197;-78
2022/07/13 05:46:54;;;;;;;4.03;2.40;;;24.50;1.00;;;;;;5112971;28;20250;-82
2022/07/13 05:49:21;;;;;;;8.57;2.47;;;24.60;99.90;;;;;;5100529;28;20595;-78
2022/07/13 05:51:47;;;;;;;6.40;2.50;;;24.60;1.00;;;;;;5097919;28;20533;-79
2022/07/13 05:54:12;;;;;;;6.73;2.83;;;24.80;99.90;;;;;;5098120;28;20183;-81
2022/07/13 05:56:39;;;;;;;6.10;2.67;;;24.80;1.00;;;;;;5097954;28;20182;-79
2022/07/13 05:59:05;;;;;;;8.67;2.47;;;24.90;57.10;;;;;;5112221;28;20159;-78
2022/07/13 06:01:31;;;;;;;8.03;2.50;;;25.00;99.90;;;;;;5114735;28;20252;-81
2022/07/13 06:03:57;;;;;;;7.80;2.60;;;25.00;99.90;;;;;;5112893;28;20178;-79
2022/07/13 06:06:23;;;;;;;7.87;3.00;;;25.00;99.90;;;;;;5112444;28;20176;-79
2022/07/13 06:08:49;;;;;;;4.77;2.60;;;25.10;1.00;;;;;;5098869;28;20171;-79
2022/07/13 06:11:15;;;;;;;5.80;2.30;;;25.10;99.90;;;;;;5096165;28;20290;-79
2022/07/13 06:13:41;;;;;;;7.73;2.20;;;25.20;1.00;;;;;;5095304;28;20546;-80
2022/07/13 06:16:07;;;;;;;6.97;2.40;;;25.20;99.90;;;;;;5095150;28;20168;-79
2022/07/13 06:18:33;;;;;;;4.67;2.40;;;25.20;96.70;;;;;;5096513;28;20190;-78
2022/07/13 06:21:00;;;;;;;5.43;2.60;;;25.00;1.00;;;;;;5100249;28;20187;-78
2022/07/13 06:23:25;;;;;;;3.87;2.20;;;24.80;1.00;;;;;;5109882;28;20214;-79
2022/07/13 06:25:52;;;;;;;3.63;2.40;;;24.80;99.90;;;;;;5104240;28;20599;-79
2022/07/13 06:28:19;;;;;;;7.23;2.43;;;24.90;99.90;;;;;;5098888;28;20575;-81
2022/07/13 06:30:45;;;;;;;8.53;2.60;;;24.80;99.90;;;;;;5098558;28;20186;-80
2022/07/13 06:33:11;;;;;;;5.90;2.57;;;24.70;1.00;;;;;;5097539;28;20174;-80
2022/07/13 06:35:37;;;;;;;2.93;1.97;;;24.70;1.00;;;;;;5108296;28;20187;-78
2022/07/13 06:38:02;;;;;;;4.03;2.17;;;24.60;99.90;;;;;;5118514;28;20171;-80
2022/07/13 06:40:28;;;;;;;6.37;2.40;;;24.60;99.90;;;;;;5105311;28;20215;-80
2022/07/13 06:42:55;;;;;;;5.03;2.20;;;24.60;1.00;;;;;;5102067;28;20167;-79
2022/07/13 06:45:22;;;;;;;4.20;2.00;;;24.70;99.90;;;;;;5100793;28;20171;-80
2022/07/13 06:47:49;;;;;;;6.17;2.37;;;24.80;32.10;;;;;;5106277;28;20239;-80
2022/07/13 06:50:14;;;;;;;7.40;2.23;;;24.90;1.00;;;;;;5108155;28;20176;-77
2022/07/13 06:52:41;;;;;;;7.00;2.47;;;25.00;99.90;;;;;;5106075;28;20478;-81
2022/07/13 06:55:08;;;;;;;3.53;2.53;;;25.20;99.90;;;;;;5109176;28;20171;-76
2022/07/13 06:57:34;;;;;;;6.83;2.30;;;25.30;99.90;;;;;;5118337;28;20160;-80
2022/07/13 07:00:00;;;;;;;8.30;2.13;;;25.30;99.90;;;;;;5110098;28;20239;-80
2022/07/13 07:02:25;;;;;;;9.10;2.40;;;25.40;99.90;;;;;;5102262;28;20574;-80
2022/07/13 07:04:51;;;;;;;4.77;2.27;;;25.40;99.90;;;;;;5102909;28;20156;-81
2022/07/13 07:07:17;;;;;;;5.20;2.20;;;25.50;1.00;;;;;;5101712;28;20175;-80
2022/07/13 07:09:42;;;;;;;6.90;2.50;;;25.70;99.90;;;;;;5101573;28;20267;-81
2022/07/13 07:12:08;;;;;;;8.30;2.43;;;25.70;99.90;;;;;;5099266;28;20172;-82
2022/07/13 07:14:34;;;;;;;3.93;2.43;;;25.60;1.00;;;;;;5101819;28;20175;-80
2022/07/13 07:17:02;;;;;;;4.63;2.77;;;25.50;1.00;;;;;;5096849;28;20169;-81
2022/07/13 07:19:28;;;;;;;6.97;2.67;;;25.60;1.00;;;;;;5100808;28;20667;-80
2022/07/13 07:21:54;;;;;;;8.63;2.30;;;25.60;99.90;;;;;;5103031;28;20180;-80
2022/07/13 07:24:22;;;;;;;5.27;2.47;;;25.60;1.00;;;;;;5115685;28;20168;-80
2022/07/13 07:26:47;;;;;;;4.83;2.27;;;25.70;99.90;;;;;;5101252;28;20183;-80
2022/07/13 07:29:14;;;;;;;4.60;2.27;;;25.80;99.90;;;;;;5097519;28;20679;-81
2022/07/13 07:31:40;;;;;;;7.43;2.50;;;25.70;1.00;;;;;;5095567;28;20225;-83
2022/07/13 07:34:06;;;;;;;6.13;2.63;;;25.70;1.00;;;;;;5098251;28;20594;-81
2022/07/13 07:36:32;;;;;;;5.57;2.70;;;25.80;1.00;;;;;;5095949;28;20168;-80
2022/07/13 07:38:57;;;;;;;4.70;2.37;;;26.00;99.90;;;;;;5097586;28;20191;-84
2022/07/13 07:41:23;;;;;;;5.50;2.50;;;25.90;1.00;;;;;;5097413;28;20573;-80
2022/07/13 07:43:49;;;;;;;4.53;2.27;;;25.80;1.00;;;;;;5096464;28;20647;-81
2022/07/13 07:46:15;;;;;;;7.60;2.30;;;25.70;99.90;;;;;;5097407;28;20167;-79
2022/07/13 07:48:41;;;;;;;7.67;2.63;;;25.80;99.90;;;;;;5099609;28;20696;-81
2022/07/13 07:51:07;;;;;;;6.67;2.53;;;25.90;99.90;;;;;;5098687;28;20167;-81
2022/07/13 07:53:33;;;;;;;6.53;2.73;;;26.00;1.00;;;;;;5096488;28;20164;-83
2022/07/13 07:55:59;;;;;;;5.77;2.57;;;25.90;99.90;;;;;;5095957;28;20552;-83
2022/07/13 07:58:24;;;;;;;5.07;2.63;;;26.00;1.00;;;;;;5095599;28;20178;-82
2022/07/13 08:00:50;;;;;;;9.17;2.70;;;25.90;25.70;;;;;;5096654;28;20732;-81
2022/07/13 08:03:16;;;;;;;6.73;2.83;;;25.50;1.00;;;;;;5096697;28;20175;-80
2022/07/13 08:05:47;;;;;;;7.13;2.70;;;25.30;99.90;;;;;;5097302;28;20183;-79
2022/07/13 08:08:12;;;;;;;8.07;3.30;;;25.30;99.90;;;;;;5097902;28;20877;-83
2022/07/13 08:10:39;;;;;;;6.30;2.80;;;25.40;99.90;;;;;;5102420;28;20152;-83
2022/07/13 08:13:05;;;;;;;8.20;3.10;;;25.50;99.90;;;;;;5104429;28;20167;-82
2022/07/13 08:15:32;;;;;;;5.10;3.10;;;25.60;99.90;;;;;;5094867;28;20193;-81
2022/07/13 08:17:58;;;;;;;5.83;2.77;;;25.70;90.70;;;;;;5085569;28;20176;-80
2022/07/13 08:20:24;;;;;;;5.43;3.00;;;25.80;1.00;;;;;;5105512;28;20195;-81
2022/07/13 08:22:50;;;;;;;11.83;3.27;;;25.80;1.00;;;;;;5101531;28;20168;-82
2022/07/13 08:25:16;;;;;;;7.17;3.47;;;25.80;99.90;;;;;;5093767;28;20279;-82
2022/07/13 08:27:41;;;;;;;8.27;3.30;;;25.80;99.90;;;;;;5095806;28;20244;-82
2022/07/13 08:30:08;;;;;;;5.87;2.90;;;26.00;84.50;;;;;;5096500;28;20164;-82
2022/07/13 08:32:34;;;;;;;6.63;3.13;;;26.10;99.90;;;;;;5096201;28;20172;-81
2022/07/13 08:40:28;;;;;;;7.53;3.10;;;26.30;1.00;;;;;;5095503;28;20695;-83
2022/07/13 08:42:54;;;;;;;5.57;3.03;;;26.40;99.90;;;;;;5095421;28;20191;-81
2022/07/13 08:45:21;;;;;;;8.13;3.17;;;26.40;99.90;;;;;;5100546;28;20266;-82
2022/07/13 08:47:47;;;;;;;9.47;3.00;;;26.40;1.00;;;;;;5095143;28;20187;-81
2022/07/13 08:50:13;;;;;;;4.87;2.90;;;26.10;1.00;;;;;;5081621;28;20636;-82
2022/07/13 08:52:41;;;;;;;5.53;2.80;;;26.20;99.90;;;;;;5092362;28;20176;-80
2022/07/13 08:55:08;;;;;;;6.53;3.00;;;26.20;99.90;;;;;;5093473;28;20263;-82
2022/07/13 08:57:38;;;;;;;6.73;2.60;;;26.00;99.90;;;;;;5095251;28;20214;-82
2022/07/13 09:00:07;;;;;;;5.70;3.03;;;26.00;1.00;;;;;;5098600;28;20192;-80
2022/07/13 09:02:34;;;;;;;8.60;2.90;;;26.20;1.00;;;;;;5111892;28;20695;-83
2022/07/13 09:05:04;;;;;;;5.80;2.77;;;26.20;99.90;;;;;;5105551;28;20276;-81
2022/07/13 09:07:31;;;;;;;7.00;3.17;;;26.20;99.90;;;;;;5102256;28;20168;-83
2022/07/13 09:09:59;;;;;;;6.43;2.90;;;26.40;99.90;;;;;;5092692;28;20190;-82
2022/07/13 09:12:26;;;;;;;10.30;2.70;;;26.50;99.90;;;;;;5091762;28;20175;-80
2022/07/13 09:14:55;;;;;;;4.93;2.70;;;26.50;1.00;;;;;;5094790;28;20167;-79
2022/07/13 09:17:47;;;;;;;6.45;3.33;;;26.50;99.90;;;;;;5095086;28;20249;-80
2022/07/13 09:20:13;;;;;;;6.37;2.97;;;26.40;1.00;;;;;;5096025;28;20222;-81
2022/07/13 09:22:53;;;;;;;6.13;2.70;;;26.50;99.90;;;;;;5107245;28;20164;-82
2022/07/13 09:25:32;;;;;;;7.30;3.00;;;26.50;99.90;;;;;;5116981;28;20158;-80
2022/07/13 09:28:06;;;;;;;6.53;3.30;;;26.60;99.90;;;;;;5118004;28;20166;-80
2022/07/13 09:30:35;;;;;;;6.63;2.80;;;26.60;1.00;;;;;;5110696;28;20192;-80
2022/07/13 09:33:02;;;;;;;5.33;2.90;;;26.80;99.90;;;;;;5105341;28;20203;-80
2022/07/13 09:35:49;;;;;;;6.70;2.57;;;26.90;99.90;;;;;;5096170;28;20303;-81
2022/07/13 09:38:30;;;;;;;4.97;2.50;;;26.80;99.90;;;;;;5096078;28;20568;-82
2022/07/13 09:40:56;;;;;;;4.70;2.50;;;26.90;1.00;;;;;;5097065;28;20210;-83
2022/07/13 09:46:10;;;;;;;4.37;2.10;;;27.00;1.00;;;;;;5115338;28;20182;-78
2022/07/13 09:48:37;;;;;;;4.63;1.73;;;27.20;1.00;;;;;;5116623;28;20177;-79
2022/07/13 09:51:05;;;;;;;4.57;1.90;;;27.30;42.70;;;;;;5117837;28;20173;-78
2022/07/13 09:53:33;;;;;;;3.95;1.77;;;27.40;1.00;;;;;;5114395;28;20195;-79
2022/07/13 09:56:02;;;;;;;4.18;2.08;;;27.70;99.90;;;;;;5110002;28;20191;-80
2022/07/13 09:58:33;;;;;;;4.03;1.80;;;28.00;99.90;;;;;;5099978;28;20170;-81
2022/07/13 10:01:02;;;;;;;3.95;1.65;;;28.10;1.00;;;;;;5094281;28;20226;-83
2022/07/13 10:03:29;;;;;;;2.53;1.83;;;28.10;99.90;;;;;;5096949;28;20144;-82
2022/07/13 10:05:56;;;;;;;3.53;1.70;;;28.10;99.90;;;;;;5096439;28;20167;-82
2022/07/13 10:08:22;;;;;;;3.60;2.05;;;28.20;99.90;;;;;;5096516;28;20198;-79
2022/07/13 10:10:49;;;;;;;3.63;1.95;;;28.30;99.90;;;;;;5096372;28;20175;-83
2022/07/13 10:13:16;;;;;;;6.00;2.28;;;28.50;1.00;;;;;;5088571;28;20278;-81
2022/07/13 10:15:43;;;;;;;3.80;2.10;;;28.30;1.00;;;;;;5076550;28;20206;-80
2022/07/13 10:18:12;;;;;;;4.97;2.10;;;28.20;1.00;;;;;;5077272;28;20210;-83
2022/07/13 10:20:42;;;;;;;5.00;2.05;;;28.40;1.00;;;;;;5078719;28;20199;-81
2022/07/13 10:23:09;;;;;;;5.60;2.38;;;28.30;1.00;;;;;;5079300;28;20663;-83
2022/07/13 10:25:43;;;;;;;6.43;2.25;;;28.40;1.00;;;;;;5078671;28;20663;-82
2022/07/13 10:28:09;;;;;;;6.18;2.03;;;28.20;1.00;;;;;;5080320;28;20214;-81
2022/07/13 10:30:36;;;;;;;3.05;1.88;;;28.30;1.00;;;;;;5081862;28;20169;-84
2022/07/13 10:33:21;;;;;;;4.05;2.28;;;28.40;1.00;;;;;;5080139;28;20172;-83
2022/07/13 10:35:53;;;;;;;7.15;2.10;;;28.70;1.00;;;;;;5083508;28;20176;-85
2022/07/13 10:38:20;;;;;;;4.25;2.30;;;28.50;1.00;;;;;;5095700;28;20192;-82
2022/07/13 10:40:46;;;;;;;3.90;1.80;;;28.50;7.60;;;;;;5088841;28;20237;-80
2022/07/13 10:43:16;;;;;;;3.55;1.95;;;28.50;40.90;;;;;;5079633;28;20149;-81
2022/07/13 10:45:44;;;;;;;5.25;2.05;;;28.70;1.00;;;;;;5078907;28;20183;-81
2022/07/13 10:48:25;;;;;;;3.15;1.83;;;29.00;1.00;;;;;;5078709;28;20171;-82
2022/07/13 10:50:53;;;;;;;5.38;1.90;;;29.20;1.00;;;;;;5079840;28;20179;-81
2022/07/13 10:53:19;;;;;;;5.60;2.17;;;29.40;1.00;;;;;;5078808;28;20205;-82
2022/07/13 10:55:46;;;;;;;4.57;1.77;;;29.40;1.00;;;;;;5079135;28;20164;-82
2022/07/13 10:58:49;;;;;;;7.13;2.30;;;29.50;1.00;;;;;;5077535;28;20226;-79
2022/07/13 11:01:42;;;;;;;4.60;2.40;;;29.70;1.00;;;;;;5053914;28;20279;-83
2022/07/13 11:04:12;;;;;;;4.65;2.22;;;29.80;1.00;;;;;;5090410;28;20309;-82
2022/07/13 11:06:39;;;;;;;8.07;2.20;;;29.50;1.00;;;;;;5098298;28;20171;-82
2022/07/13 11:09:13;;;;;;;3.92;2.15;;;29.30;1.00;;;;;;5097776;28;20171;-82
2022/07/13 11:11:47;;;;;;;8.18;2.05;;;29.30;1.00;;;;;;5090707;28;20182;-83
2022/07/13 11:14:48;;;;;;;4.63;2.33;;;29.40;1.00;;;;;;5085963;28;20176;-82
2022/07/13 11:17:24;;;;;;;5.90;2.00;;;29.60;1.00;;;;;;5095353;28;20163;-78
2022/07/13 11:19:55;;;;;;;4.07;2.05;;;29.80;1.00;;;;;;5096570;28;20734;-83
2022/07/13 11:22:22;;;;;;;5.10;1.60;;;30.00;1.00;;;;;;5093034;28;20182;-83
2022/07/13 11:25:16;;;;;;;5.20;2.10;;;29.80;1.00;;;;;;5097321;28;20639;-80
2022/07/13 11:27:57;;;;;;;3.78;1.77;;;29.70;1.00;;;;;;5101092;28;20179;-82
2022/07/13 11:30:32;;;;;;;4.60;2.00;;;29.80;1.00;;;;;;5096168;28;20180;-82
2022/07/13 11:32:58;;;;;;;4.50;1.90;;;29.80;1.00;;;;;;5075221;28;20180;-82
2022/07/13 11:35:24;;;;;;;2.67;1.90;;;29.90;1.00;;;;;;5075667;28;20176;-80
2022/07/13 11:37:51;;;;;;;5.85;1.90;;;29.80;1.00;;;;;;5074461;28;20263;-80
2022/07/13 11:40:31;;;;;;;4.60;1.90;;;29.90;1.00;;;;;;5074968;28;20254;-79
2022/07/13 11:43:01;;;;;;;12.70;2.53;;;30.00;1.00;;;;;;5073425;28;20263;-82
2022/07/13 11:45:32;;;;;;;4.13;2.15;;;30.00;1.00;;;;;;5076249;28;20200;-82
2022/07/13 11:47:59;;;;;;;4.00;2.30;;;29.70;1.00;;;;;;5079751;28;20517;-83
2022/07/13 11:50:53;;;;;;;6.03;2.10;;;29.70;23.40;;;;;;5097969;28;20255;-82
2022/07/13 11:53:27;;;;;;;3.25;2.00;;;29.60;57.20;;;;;;5095879;28;20236;-81
2022/07/13 11:56:06;;;;;;;4.57;2.47;;;29.50;99.90;;;;;;5098295;28;20265;-83
2022/07/13 11:58:39;;;;;;;3.95;2.20;;;29.60;99.90;;;;;;5084667;28;20178;-82
2022/07/13 12:01:13;;;;;;;4.97;2.20;;;29.80;1.00;;;;;;5086669;28;20693;-82
2022/07/13 12:03:39;;;;;;;5.57;3.08;;;30.00;1.00;;;;;;5086863;28;20206;-83
2022/07/13 12:06:13;;;;;;;8.02;2.10;;;29.70;1.00;;;;;;5084508;28;20180;-85
2022/07/13 12:08:41;;;;;;;3.55;1.70;;;29.50;1.00;;;;;;5099678;28;20163;-82
2022/07/13 12:11:08;;;;;;;7.05;1.80;;;29.30;1.00;;;;;;5090485;28;20199;-83
2022/07/13 12:13:36;;;;;;;4.05;1.90;;;29.40;1.00;;;;;;5098020;28;20174;-80
2022/07/13 12:16:04;;;;;;;4.28;1.60;;;29.40;1.00;;;;;;5112799;28;20244;-76
2022/07/13 12:18:30;;;;;;;4.00;1.90;;;29.40;1.00;;;;;;5113940;28;20195;-81
2022/07/13 12:20:57;;;;;;;4.25;2.00;;;29.40;1.00;;;;;;5099334;28;20203;-80
2022/07/13 12:23:23;;;;;;;2.90;1.88;;;29.80;1.00;;;;;;5085579;28;20405;-82
2022/07/13 12:26:05;;;;;;;3.30;2.30;;;29.90;1.00;;;;;;5091686;28;20167;-81
2022/07/13 12:28:31;;;;;;;8.38;2.15;;;29.90;1.00;;;;;;5089177;28;20203;-82
2022/07/13 12:31:00;;;;;;;4.57;1.67;;;29.90;1.00;;;;;;5076715;28;20168;-82
2022/07/13 12:33:37;;;;;;;5.50;1.80;;;29.70;1.00;;;;;;5090275;28;20175;-80
2022/07/13 12:36:04;;;;;;;6.90;2.00;;;29.90;1.00;;;;;;5109619;28;20156;-78
2022/07/13 12:38:31;;;;;;;4.68;1.80;;;29.70;1.00;;;;;;5113877;28;20689;-81
2022/07/13 12:41:01;;;;;;;3.38;1.98;;;29.50;1.00;;;;;;5099109;28;20218;-83
2022/07/13 12:43:31;;;;;;;4.85;2.10;;;29.50;1.00;;;;;;5095932;28;20172;-82
2022/07/13 12:46:03;;;;;;;4.53;2.45;;;29.50;1.00;;;;;;5090678;28;20552;-82
2022/07/13 12:48:34;;;;;;;7.03;2.40;;;29.50;1.00;;;;;;5096594;28;20168;-83
2022/07/13 12:51:13;;;;;;;4.22;2.03;;;29.40;1.00;;;;;;5096517;28;20524;-84
2022/07/13 12:53:47;;;;;;;5.07;1.83;;;29.40;1.00;;;;;;5114760;28;20167;-79
2022/07/13 12:56:17;;;;;;;5.78;1.80;;;29.50;1.00;;;;;;5110730;28;20199;-82
2022/07/13 12:58:47;;;;;;;3.40;1.85;;;29.70;1.00;;;;;;5103180;28;20164;-82
2022/07/13 13:01:45;;;;;;;4.03;1.88;;;29.60;1.00;;;;;;5098515;28;20219;-79